createdAt,value
2022-11-09T00:01:04.579Z,12.90
2022-11-09T00:03:33.523Z,12.90
2022-11-09T00:06:00.787Z,12.80
2022-11-09T00:08:30.272Z,12.80
2022-11-09T00:11:09.936Z,12.80
2022-11-09T00:13:42.263Z,12.80
2022-11-09T00:16:17.123Z,12.80
2022-11-09T00:18:47.597Z,12.80
2022-11-09T00:21:17.266Z,12.80
2022-11-09T00:23:51.327Z,12.80
2022-11-09T00:26:23.779Z,12.80
2022-11-09T00:28:50.629Z,12.80
2022-11-09T00:31:21.507Z,12.80
2022-11-09T00:33:52.892Z,12.80
2022-11-09T00:36:20.654Z,12.80
2022-11-09T00:38:55.294Z,12.80
2022-11-09T00:41:25.772Z,12.80
2022-11-09T00:43:53.206Z,12.80
2022-11-09T00:46:22.804Z,12.80
2022-11-09T00:48:54.227Z,12.80
2022-11-09T00:51:24.753Z,12.80
2022-11-09T00:53:54.537Z,12.80
2022-11-09T00:56:24.536Z,12.80
2022-11-09T00:58:55.689Z,12.80
2022-11-09T01:01:26.358Z,12.80
2022-11-09T01:03:53.653Z,12.80
2022-11-09T01:06:22.741Z,12.80
2022-11-09T01:08:50.339Z,12.80
2022-11-09T01:11:18.741Z,12.80
2022-11-09T01:13:50.265Z,12.80
2022-11-09T01:16:23.886Z,12.80
2022-11-09T01:18:55.860Z,12.80
2022-11-09T01:21:25.306Z,12.80
2022-11-09T01:23:55.938Z,12.70
2022-11-09T01:26:23.233Z,12.70
2022-11-09T01:28:55.039Z,12.70
2022-11-09T01:31:22.734Z,12.70
2022-11-09T01:33:51.771Z,12.70
2022-11-09T01:36:22.391Z,12.70
2022-11-09T01:38:49.603Z,12.60
2022-11-09T01:41:25.755Z,12.60
2022-11-09T01:44:09.666Z,12.60
2022-11-09T01:46:44.318Z,12.60
2022-11-09T01:49:41.013Z,12.60
2022-11-09T01:52:11.242Z,12.60
2022-11-09T01:54:42.844Z,12.50
2022-11-09T01:57:26.072Z,12.50
2022-11-09T02:00:05.317Z,12.50
2022-11-09T02:02:44.190Z,12.50
2022-11-09T02:05:17.337Z,12.40
2022-11-09T02:07:46.459Z,12.40
2022-11-09T02:10:25.494Z,12.40
2022-11-09T02:12:53.269Z,12.40
2022-11-09T02:15:23.612Z,12.40
2022-11-09T02:17:57.408Z,12.40
2022-11-09T02:20:27.639Z,12.40
2022-11-09T02:22:57.027Z,12.40
2022-11-09T02:25:23.772Z,12.40
2022-11-09T02:27:51.024Z,12.30
2022-11-09T02:30:20.976Z,12.30
2022-11-09T02:32:48.836Z,12.30
2022-11-09T02:35:17.787Z,12.30
2022-11-09T02:37:50.306Z,12.30
2022-11-09T02:40:26.640Z,12.30
2022-11-09T02:42:54.867Z,12.20
2022-11-09T02:45:21.631Z,12.20
2022-11-09T02:47:50.679Z,12.20
2022-11-09T02:50:17.492Z,12.20
2022-11-09T02:52:46.520Z,12.20
2022-11-09T02:55:14.135Z,12.20
2022-11-09T02:57:41.385Z,12.20
2022-11-09T03:00:11.167Z,12.20
2022-11-09T03:02:43.975Z,12.20
2022-11-09T03:05:11.706Z,12.20
2022-11-09T03:07:41.634Z,12.20
2022-11-09T03:10:10.931Z,12.20
2022-11-09T03:12:38.269Z,12.20
2022-11-09T03:15:11.224Z,12.20
2022-11-09T03:17:42.452Z,12.20
2022-11-09T03:20:10.035Z,12.20
2022-11-09T03:22:37.969Z,12.20
2022-11-09T03:25:05.159Z,12.20
2022-11-09T03:27:32.148Z,12.20
2022-11-09T03:30:01.131Z,12.20
2022-11-09T03:32:27.985Z,12.20
2022-11-09T03:34:54.793Z,12.20
2022-11-09T03:37:21.670Z,12.30
2022-11-09T03:39:48.711Z,12.30
2022-11-09T03:42:17.908Z,12.30
2022-11-09T03:44:44.735Z,12.30
2022-11-09T03:47:14.012Z,12.30
2022-11-09T03:49:40.775Z,12.40
2022-11-09T03:52:07.640Z,12.30
2022-11-09T03:54:36.749Z,12.40
2022-11-09T03:57:05.793Z,12.40
2022-11-09T03:59:32.545Z,12.30
2022-11-09T04:01:59.283Z,12.40
2022-11-09T04:04:26.055Z,12.40
2022-11-09T04:06:52.792Z,12.40
2022-11-09T04:09:19.696Z,12.40
2022-11-09T04:11:48.595Z,12.40
2022-11-09T04:14:18.487Z,12.40
2022-11-09T04:16:45.311Z,12.40
2022-11-09T04:19:14.242Z,12.40
2022-11-09T04:21:41.021Z,12.40
2022-11-09T04:24:09.997Z,12.40
2022-11-09T04:26:41.136Z,12.40
2022-11-09T04:29:07.964Z,12.40
2022-11-09T04:31:36.899Z,12.40
2022-11-09T04:34:03.759Z,12.40
2022-11-09T04:36:30.577Z,12.40
2022-11-09T04:38:57.383Z,12.40
2022-11-09T04:41:24.186Z,12.40
2022-11-09T04:43:50.910Z,12.40
2022-11-09T04:46:17.710Z,12.40
2022-11-09T04:48:49.012Z,12.40
2022-11-09T04:51:15.740Z,12.40
2022-11-09T04:53:42.526Z,12.40
2022-11-09T04:56:09.331Z,12.40
2022-11-09T04:58:36.323Z,12.40
2022-11-09T05:01:08.738Z,12.40
2022-11-09T05:03:35.757Z,12.40
2022-11-09T05:06:22.826Z,12.40
2022-11-09T05:08:52.633Z,12.40
2022-11-09T05:11:19.941Z,12.30
2022-11-09T05:13:47.370Z,12.40
2022-11-09T05:16:17.409Z,12.30
2022-11-09T05:18:44.603Z,12.30
2022-11-09T05:21:11.723Z,12.30
2022-11-09T05:23:57.411Z,12.30
2022-11-09T05:26:24.984Z,12.30
2022-11-09T05:28:54.877Z,12.30
2022-11-09T05:31:21.751Z,12.30
2022-11-09T05:33:52.053Z,12.30
2022-11-09T05:36:21.572Z,12.40
2022-11-09T05:38:48.741Z,12.30
2022-11-09T05:41:16.058Z,12.30
2022-11-09T05:43:45.972Z,12.40
2022-11-09T05:46:16.485Z,12.30
2022-11-09T05:48:44.019Z,12.30
2022-11-09T05:51:12.741Z,12.40
2022-11-09T05:53:43.678Z,12.30
2022-11-09T05:56:13.820Z,12.40
2022-11-09T05:58:43.291Z,12.40
2022-11-09T06:01:12.864Z,12.40
2022-11-09T06:03:44.026Z,12.40
2022-11-09T06:06:15.880Z,12.40
2022-11-09T06:08:42.880Z,12.40
2022-11-09T06:11:11.876Z,12.50
2022-11-09T06:13:41.008Z,12.50
2022-11-09T06:16:09.376Z,12.50
2022-11-09T06:18:36.824Z,12.50
2022-11-09T06:21:05.131Z,12.50
2022-11-09T06:23:35.485Z,12.50
2022-11-09T06:26:09.548Z,12.50
2022-11-09T06:28:37.591Z,12.50
2022-11-09T06:31:07.226Z,12.50
2022-11-09T06:33:38.331Z,12.50
2022-11-09T06:36:09.050Z,12.50
2022-11-09T06:38:35.899Z,12.50
2022-11-09T06:41:05.111Z,12.50
2022-11-09T06:43:31.936Z,12.50
2022-11-09T06:45:58.626Z,12.50
2022-11-09T06:48:25.376Z,12.50
2022-11-09T06:50:54.320Z,12.50
2022-11-09T06:53:21.460Z,12.50
2022-11-09T06:55:51.208Z,12.50
2022-11-09T06:58:19.427Z,12.50
2022-11-09T07:01:30.162Z,12.50
2022-11-09T07:03:56.904Z,12.50
2022-11-09T07:06:23.825Z,12.50
2022-11-09T07:08:50.723Z,12.50
2022-11-09T07:11:19.515Z,12.50
2022-11-09T07:13:52.251Z,12.50
2022-11-09T07:16:21.644Z,12.50
2022-11-09T07:18:48.475Z,12.40
2022-11-09T07:21:17.554Z,12.40
2022-11-09T07:23:46.844Z,12.40
2022-11-09T07:26:13.653Z,12.40
2022-11-09T07:28:41.134Z,12.40
2022-11-09T07:31:11.583Z,12.40
2022-11-09T07:33:40.933Z,12.30
2022-11-09T07:36:08.079Z,12.30
2022-11-09T07:38:34.939Z,12.30
2022-11-09T07:41:02.552Z,12.40
2022-11-09T07:43:32.473Z,12.40
2022-11-09T07:46:10.579Z,12.30
2022-11-09T07:48:39.767Z,12.30
2022-11-09T07:51:06.732Z,12.30
2022-11-09T07:53:33.543Z,12.30
2022-11-09T07:56:02.973Z,12.30
2022-11-09T07:58:30.577Z,12.30
2022-11-09T08:00:59.784Z,12.30
2022-11-09T08:03:26.706Z,12.30
2022-11-09T08:05:56.146Z,12.40
2022-11-09T08:08:22.999Z,12.40
2022-11-09T08:10:52.367Z,12.40
2022-11-09T08:13:22.041Z,12.40
2022-11-09T08:15:51.499Z,12.40
2022-11-09T08:18:21.493Z,12.40
2022-11-09T08:20:49.602Z,12.40
2022-11-09T08:23:20.957Z,12.40
2022-11-09T08:25:50.893Z,12.40
2022-11-09T08:28:18.769Z,12.40
2022-11-09T08:30:46.742Z,12.40
2022-11-09T08:33:15.628Z,12.40
2022-11-09T08:35:42.676Z,12.40
2022-11-09T08:38:12.478Z,12.40
2022-11-09T08:40:41.512Z,12.50
2022-11-09T08:43:10.282Z,12.50
2022-11-09T08:45:38.808Z,12.40
2022-11-09T08:48:08.928Z,12.40
2022-11-09T08:50:38.436Z,12.40
2022-11-09T08:53:06.012Z,12.40
2022-11-09T08:55:33.454Z,12.40
2022-11-09T08:58:01.981Z,12.40
2022-11-09T09:00:29.109Z,12.40
2022-11-09T09:02:57.985Z,12.50
2022-11-09T09:05:25.068Z,12.50
2022-11-09T09:07:51.995Z,12.50
2022-11-09T09:14:44.750Z,12.50
2022-11-09T09:17:11.779Z,12.60
2022-11-09T09:19:38.607Z,12.60
2022-11-09T09:22:05.990Z,12.60
2022-11-09T09:24:33.264Z,12.60
2022-11-09T09:27:00.096Z,12.70
2022-11-09T09:29:27.052Z,12.70
2022-11-09T09:31:56.281Z,12.80
2022-11-09T09:34:28.186Z,12.80
2022-11-09T09:36:55.057Z,12.90
2022-11-09T09:39:27.371Z,13.00
2022-11-09T09:42:04.909Z,13.10
2022-11-09T09:44:38.626Z,13.10
2022-11-09T09:47:36.428Z,13.10
2022-11-09T09:50:06.283Z,13.10
2022-11-09T09:52:38.288Z,13.10
2022-11-09T09:55:27.330Z,13.10
2022-11-09T09:58:04.787Z,13.00
2022-11-09T10:00:38.711Z,13.00
2022-11-09T10:03:17.397Z,13.00
2022-11-09T10:06:07.059Z,13.00
2022-11-09T10:08:42.154Z,13.00
2022-11-09T10:11:36.902Z,13.10
2022-11-09T10:14:44.418Z,13.10
2022-11-09T10:17:22.559Z,13.10
2022-11-09T10:20:00.021Z,13.10
2022-11-09T10:22:47.062Z,13.10
2022-11-09T10:25:43.387Z,13.10
2022-11-09T10:28:17.607Z,13.00
2022-11-09T10:30:45.050Z,13.10
2022-11-09T10:33:11.757Z,13.10
2022-11-09T10:35:45.114Z,13.10
2022-11-09T10:38:46.292Z,13.20
2022-11-09T10:41:39.824Z,13.20
2022-11-09T10:44:25.266Z,13.20
2022-11-09T10:47:14.968Z,13.20
2022-11-09T10:50:08.778Z,13.30
2022-11-09T10:53:19.243Z,13.30
2022-11-09T10:56:20.451Z,13.40
2022-11-09T10:59:38.780Z,13.40
2022-11-09T11:02:26.927Z,13.40
2022-11-09T11:05:18.538Z,13.40
2022-11-09T11:08:20.897Z,13.50
2022-11-09T11:11:33.108Z,13.50
2022-11-09T11:14:41.777Z,13.50
2022-11-09T11:17:35.612Z,13.60
2022-11-09T11:20:37.179Z,13.60
2022-11-09T11:23:26.710Z,13.70
2022-11-09T11:26:34.445Z,13.70
2022-11-09T11:29:38.330Z,13.80
2022-11-09T11:32:24.161Z,13.80
2022-11-09T11:35:17.002Z,13.90
2022-11-09T11:38:15.035Z,13.90
2022-11-09T11:41:17.728Z,13.90
2022-11-09T11:44:20.822Z,13.90
2022-11-09T11:47:13.892Z,13.90
2022-11-09T11:50:28.524Z,14.00
2022-11-09T11:53:21.275Z,14.00
2022-11-09T11:56:28.638Z,14.00
2022-11-09T11:59:42.351Z,14.00
2022-11-09T12:02:52.415Z,14.10
2022-11-09T12:06:11.358Z,14.10
2022-11-09T12:09:11.780Z,14.10
2022-11-09T12:12:07.300Z,14.00
2022-11-09T12:15:27.167Z,14.10
2022-11-09T12:18:18.217Z,14.20
2022-11-09T12:21:15.523Z,14.20
2022-11-09T12:24:10.008Z,14.30
2022-11-09T12:27:32.911Z,14.30
2022-11-09T12:30:25.031Z,14.40
2022-11-09T12:33:23.601Z,14.50
2022-11-09T12:36:37.233Z,14.50
2022-11-09T12:39:33.084Z,14.50
2022-11-09T12:42:35.619Z,14.50
2022-11-09T12:45:34.586Z,14.50
2022-11-09T12:48:22.999Z,14.50
2022-11-09T12:51:08.854Z,14.50
2022-11-09T12:53:56.016Z,14.50
2022-11-09T12:56:54.140Z,14.50
2022-11-09T12:59:48.281Z,14.50
2022-11-09T13:02:52.916Z,14.40
2022-11-09T13:05:39.414Z,14.40
2022-11-09T13:08:32.233Z,14.40
2022-11-09T13:11:33.708Z,14.40
2022-11-09T13:14:22.187Z,14.50
2022-11-09T13:17:26.449Z,14.40
2022-11-09T13:20:59.207Z,14.50
2022-11-09T13:24:03.643Z,14.50
2022-11-09T13:26:50.389Z,14.50
2022-11-09T13:29:42.135Z,14.50
2022-11-09T13:32:29.455Z,14.50
2022-11-09T13:35:39.853Z,14.50
2022-11-09T13:38:28.664Z,14.50
2022-11-09T13:41:34.535Z,14.50
2022-11-09T13:44:25.202Z,14.50
2022-11-09T13:47:34.523Z,14.50
2022-11-09T13:50:26.027Z,14.50
2022-11-09T13:53:33.434Z,14.50
2022-11-09T13:56:36.299Z,14.50
2022-11-09T13:59:48.833Z,14.50
2022-11-09T14:02:34.229Z,14.40
2022-11-09T14:05:34.691Z,14.40
2022-11-09T14:08:24.759Z,14.40
2022-11-09T14:11:59.614Z,14.40
2022-11-09T14:15:03.176Z,14.40
2022-11-09T14:18:19.518Z,14.40
2022-11-09T14:21:37.121Z,14.40
2022-11-09T14:24:22.198Z,14.30
2022-11-09T14:27:10.731Z,14.30
2022-11-09T14:30:00.917Z,14.30
2022-11-09T14:32:54.025Z,14.30
2022-11-09T14:35:42.465Z,14.30
2022-11-09T14:38:27.694Z,14.30
2022-11-09T14:41:24.433Z,14.30
2022-11-09T14:44:25.886Z,14.30
2022-11-09T14:47:33.328Z,14.30
2022-11-09T14:50:26.768Z,14.20
2022-11-09T14:53:41.920Z,14.20
2022-11-09T14:56:30.615Z,14.20
2022-11-09T14:59:22.881Z,14.20
2022-11-09T15:02:13.513Z,14.10
2022-11-09T15:05:07.696Z,14.20
2022-11-09T15:07:53.205Z,14.10
2022-11-09T15:10:39.509Z,14.10
2022-11-09T15:13:36.994Z,14.10
2022-11-09T15:16:26.675Z,14.00
2022-11-09T15:19:28.571Z,14.00
2022-11-09T15:22:48.739Z,14.00
2022-11-09T15:25:55.542Z,14.00
2022-11-09T15:28:47.153Z,13.90
2022-11-09T15:31:34.883Z,13.90
2022-11-09T15:34:29.812Z,13.90
2022-11-09T15:37:38.229Z,13.90
2022-11-09T15:40:24.933Z,13.80
2022-11-09T15:43:10.570Z,13.80
2022-11-09T15:45:57.786Z,13.80
2022-11-09T15:48:46.214Z,13.70
2022-11-09T15:51:32.248Z,13.70
2022-11-09T15:54:18.011Z,13.70
2022-11-09T15:57:03.380Z,13.70
2022-11-09T15:59:50.967Z,13.70
2022-11-09T16:02:36.603Z,13.70
2022-11-09T16:05:25.414Z,13.70
2022-11-09T16:08:11.056Z,13.60
2022-11-09T16:10:56.696Z,13.60
2022-11-09T16:13:42.700Z,13.60
2022-11-09T16:16:31.539Z,13.60
2022-11-09T16:19:17.606Z,13.60
2022-11-09T16:22:03.013Z,13.60
2022-11-09T16:24:48.577Z,13.50
2022-11-09T16:27:49.651Z,13.60
2022-11-09T16:30:35.688Z,13.60
2022-11-09T16:33:21.250Z,13.60
2022-11-09T16:36:14.427Z,13.60
2022-11-09T16:39:05.953Z,13.50
2022-11-09T16:41:51.844Z,13.50
2022-11-09T16:44:45.209Z,13.50
2022-11-09T16:47:30.733Z,13.50
2022-11-09T16:50:16.952Z,13.50
2022-11-09T16:53:02.294Z,13.50
2022-11-09T16:55:50.549Z,13.40
2022-11-09T16:58:36.502Z,13.40
2022-11-09T17:01:25.219Z,13.40
2022-11-09T17:04:13.133Z,13.30
2022-11-09T17:07:01.388Z,13.30
2022-11-09T17:09:47.060Z,13.30
2022-11-09T17:12:33.182Z,13.30
2022-11-09T17:15:22.408Z,13.20
2022-11-09T17:18:09.929Z,13.20
2022-11-09T17:20:57.991Z,13.20
2022-11-09T17:23:46.218Z,13.20
2022-11-09T17:26:32.750Z,13.20
2022-11-09T17:29:20.328Z,13.20
2022-11-09T17:32:09.925Z,13.20
2022-11-09T17:34:55.432Z,13.10
2022-11-09T17:37:41.070Z,13.20
2022-11-09T17:40:26.519Z,13.10
2022-11-09T17:43:14.724Z,13.10
2022-11-09T17:46:11.967Z,13.10
2022-11-09T17:49:00.081Z,13.10
2022-11-09T17:51:45.377Z,13.10
2022-11-09T17:54:37.050Z,13.00
2022-11-09T17:57:22.740Z,13.10
2022-11-09T18:00:10.415Z,13.10
2022-11-09T18:02:58.253Z,13.00
2022-11-09T18:05:46.463Z,13.00
2022-11-09T18:08:36.540Z,13.00
2022-11-09T18:11:22.060Z,13.00
2022-11-09T18:14:11.153Z,13.00
2022-11-09T18:16:59.480Z,13.10
2022-11-09T18:19:47.180Z,13.00
2022-11-09T18:22:35.329Z,13.10
2022-11-09T18:25:21.398Z,13.10
2022-11-09T18:28:12.820Z,13.10
2022-11-09T18:31:08.687Z,13.10
2022-11-09T18:33:54.370Z,13.10
2022-11-09T18:36:48.883Z,13.10
2022-11-09T18:39:34.212Z,13.10
2022-11-09T18:42:20.137Z,13.20
2022-11-09T18:45:06.587Z,13.20
2022-11-09T18:47:57.388Z,13.20
2022-11-09T18:50:42.864Z,13.20
2022-11-09T18:53:35.215Z,13.20
2022-11-09T18:56:26.614Z,13.20
2022-11-09T18:59:12.770Z,13.20
2022-11-09T19:02:02.905Z,13.20
2022-11-09T19:04:48.514Z,13.20
2022-11-09T19:07:33.957Z,13.20
2022-11-09T19:10:20.217Z,13.20
2022-11-09T19:13:08.465Z,13.20
2022-11-09T19:15:58.292Z,13.20
2022-11-09T19:18:44.023Z,13.20
2022-11-09T19:21:40.514Z,13.20
2022-11-09T19:24:29.797Z,13.20
2022-11-09T19:27:18.352Z,13.20
2022-11-09T19:30:09.988Z,13.20
2022-11-09T19:32:55.407Z,13.20
2022-11-09T19:35:43.412Z,13.20
2022-11-09T19:38:28.899Z,13.10
2022-11-09T19:41:17.341Z,13.10
2022-11-09T19:44:03.443Z,13.10
2022-11-09T19:46:48.876Z,13.10
2022-11-09T19:49:34.436Z,13.00
2022-11-09T19:52:19.966Z,13.10
2022-11-09T19:55:08.137Z,13.10
2022-11-09T19:57:55.973Z,13.00
2022-11-09T20:00:41.486Z,13.00
2022-11-09T20:03:26.901Z,13.00
2022-11-09T20:06:14.676Z,13.00
2022-11-09T20:09:00.751Z,13.00
2022-11-09T20:12:04.778Z,13.00
2022-11-09T20:14:50.325Z,12.90
2022-11-09T20:17:36.015Z,12.90
2022-11-09T20:20:24.005Z,12.90
2022-11-09T20:23:11.716Z,12.90
2022-11-09T20:26:10.055Z,12.90
2022-11-09T20:28:55.666Z,12.80
2022-11-09T20:31:41.228Z,12.80
2022-11-09T20:34:29.568Z,12.80
2022-11-09T20:37:15.113Z,12.80
2022-11-09T20:40:00.740Z,12.80
2022-11-09T20:42:46.439Z,12.80
2022-11-09T20:45:31.765Z,12.80
2022-11-09T20:48:46.929Z,12.80
2022-11-09T20:51:28.676Z,12.70
2022-11-09T20:54:14.280Z,12.80
2022-11-09T20:56:59.530Z,12.70
2022-11-09T20:59:45.197Z,12.70
2022-11-09T21:02:32.623Z,12.70
2022-11-09T21:05:17.851Z,12.70
2022-11-09T21:08:05.455Z,12.70
2022-11-09T21:10:53.425Z,12.70
2022-11-09T21:13:42.655Z,12.70
2022-11-09T21:16:29.167Z,12.70
2022-11-09T21:19:16.871Z,12.70
2022-11-09T21:22:02.693Z,12.70
2022-11-09T21:25:06.744Z,12.70
2022-11-09T21:28:10.592Z,12.60
2022-11-09T21:31:00.598Z,12.60
2022-11-09T21:33:46.068Z,12.60
2022-11-09T21:36:36.245Z,12.60
2022-11-09T21:39:21.786Z,12.60
2022-11-09T21:42:13.373Z,12.60
2022-11-09T21:44:58.563Z,12.60
2022-11-09T21:47:44.194Z,12.60
2022-11-09T21:50:31.514Z,12.60
2022-11-09T21:53:16.657Z,12.60
2022-11-09T21:56:02.188Z,12.60
2022-11-09T21:58:48.509Z,12.50
2022-11-09T22:01:34.073Z,12.50
2022-11-09T22:04:21.573Z,12.50
2022-11-09T22:07:06.857Z,12.50
2022-11-09T22:13:17.135Z,12.50
2022-11-09T22:16:06.759Z,12.50
2022-11-09T22:19:13.226Z,12.50
2022-11-09T22:22:02.163Z,12.50
2022-11-09T22:24:47.769Z,12.50
2022-11-09T22:27:35.503Z,12.50
2022-11-09T22:30:20.827Z,12.50
2022-11-09T22:33:06.297Z,12.50
2022-11-09T22:35:56.121Z,12.50
2022-11-09T22:38:41.645Z,12.50
2022-11-09T22:41:26.946Z,12.50
2022-11-09T22:44:13.208Z,12.50
2022-11-09T22:46:58.721Z,12.50
2022-11-09T22:49:46.151Z,12.50
2022-11-09T22:52:33.871Z,12.50
2022-11-09T22:55:20.076Z,12.50
2022-11-09T22:58:05.485Z,12.40
2022-11-09T23:00:53.836Z,12.50
2022-11-09T23:03:39.444Z,12.50
2022-11-09T23:06:27.285Z,12.50
2022-11-09T23:09:12.585Z,12.50
2022-11-09T23:11:58.227Z,12.50
2022-11-09T23:15:04.622Z,12.50
2022-11-09T23:18:14.407Z,12.50
2022-11-09T23:21:00.564Z,12.50
2022-11-09T23:23:46.476Z,12.50
2022-11-09T23:26:37.409Z,12.50
2022-11-09T23:29:22.566Z,12.50
2022-11-09T23:32:08.465Z,12.50
2022-11-09T23:34:53.607Z,12.50
2022-11-09T23:37:42.469Z,12.50
2022-11-09T23:40:29.083Z,12.50
2022-11-09T23:43:17.518Z,12.50
2022-11-09T23:46:09.884Z,12.60
2022-11-09T23:48:57.215Z,12.60
2022-11-09T23:51:44.728Z,12.60
2022-11-09T23:54:32.086Z,12.60
2022-11-09T23:57:20.141Z,12.60
